Time;durP1;ratioP1;P1;durP2;ratioP2;P2;SDS_P1;SDS_P2;PMS_P1;PMS_P2;Temp;Humidity;BMP_temperature;BMP_pressure;BME280_temperature;BME280_humidity;BME280_pressure;Samples;Min_cycle;Max_cycle;Signal;HPM_P1;HPM_P2
2022/12/15 00:39:19;;;;;;;0.60;0.60;;;;;;;5.48;100.00;98765.03;5069385;28;20221;-63
2022/12/15 00:41:46;;;;;;;0.70;0.70;;;;;;;5.40;100.00;98769.41;5071981;28;20250;-63
2022/12/15 00:44:15;;;;;;;0.50;0.50;;;;;;;5.39;100.00;98788.09;5070966;28;20292;-63
2022/12/15 00:46:54;;;;;;;0.60;0.60;;;;;;;5.38;100.00;98787.25;5070869;28;20283;-63
2022/12/15 01:22:20;;;;;;;0.70;0.70;;;;;;;5.25;100.00;98718.03;5071300;28;20249;-63
2022/12/15 01:24:46;;;;;;;0.70;0.70;;;;;;;5.25;100.00;98697.72;5070858;28;20226;-63
2022/12/15 01:27:14;;;;;;;0.60;0.60;;;;;;;5.10;100.00;98692.94;5070860;28;20200;-64
2022/12/15 01:29:40;;;;;;;0.50;0.50;;;;;;;5.23;100.00;98747.69;5070831;28;20199;-63
2022/12/15 01:32:07;;;;;;;0.90;0.90;;;;;;;5.19;100.00;98753.72;5071266;28;20200;-63
2022/12/15 01:34:36;;;;;;;0.67;0.67;;;;;;;5.15;100.00;98752.09;5070690;28;20283;-63
2022/12/15 01:37:03;;;;;;;0.57;0.57;;;;;;;5.13;100.00;98758.94;5069915;28;20212;-63
2022/12/15 01:40:43;;;;;;;0.60;0.60;;;;;;;5.10;100.00;98759.00;5069747;28;20563;-63
2022/12/15 01:42:15;;;;;;;0.60;0.60;;;;;;;5.04;100.00;98754.00;5070928;28;20200;-63
2022/12/15 01:44:44;;;;;;;0.60;0.60;;;;;;;4.97;100.00;98744.00;5068030;28;20212;-62
2022/12/15 01:47:13;;;;;;;0.57;0.57;;;;;;;4.94;100.00;98746.59;5070272;28;20279;-63
2022/12/15 01:49:46;;;;;;;0.53;0.53;;;;;;;4.91;100.00;98746.66;5069760;28;20265;-63
2022/12/15 01:52:15;;;;;;;0.90;0.90;;;;;;;4.92;100.00;98756.75;5070678;28;20291;-63
2022/12/15 01:54:49;;;;;;;0.60;0.60;;;;;;;4.91;100.00;98751.72;5070785;28;20199;-63
2022/12/15 01:57:19;;;;;;;0.60;0.60;;;;;;;4.82;100.00;98747.63;5070087;28;20200;-63
2022/12/15 01:59:50;;;;;;;0.50;0.50;;;;;;;4.78;100.00;98767.16;5068703;28;20192;-62
2022/12/15 02:02:20;;;;;;;0.60;0.60;;;;;;;4.68;100.00;98777.50;5070586;28;20273;-63
2022/12/15 02:04:50;;;;;;;0.80;0.80;;;;;;;4.70;100.00;98768.16;5070766;28;20251;-63
2022/12/15 02:07:17;;;;;;;0.70;0.70;;;;;;;4.68;100.00;98769.91;5070559;28;20188;-63
2022/12/15 02:09:47;;;;;;;0.90;0.90;;;;;;;4.55;100.00;98789.56;5070202;28;20192;-63
2022/12/15 02:12:26;;;;;;;1.00;1.00;;;;;;;4.44;100.00;98795.66;5070885;28;20675;-63
2022/12/15 02:15:16;;;;;;;0.60;0.60;;;;;;;4.40;100.00;98799.09;5070537;28;20192;-62
2022/12/15 02:17:55;;;;;;;0.63;0.63;;;;;;;4.41;100.00;98790.63;5070235;28;20298;-63
2022/12/15 02:20:51;;;;;;;0.60;0.60;;;;;;;4.37;100.00;98789.00;5070571;28;20196;-63
2022/12/15 02:23:55;;;;;;;0.57;0.57;;;;;;;4.34;100.00;98783.97;5068099;28;20258;-63
2022/12/15 02:26:56;;;;;;;0.53;0.53;;;;;;;4.33;100.00;98792.47;5047862;28;20192;-63
2022/12/15 02:29:42;;;;;;;0.50;0.50;;;;;;;4.29;100.00;98785.75;5069387;28;20203;-63
2022/12/15 02:32:13;;;;;;;0.60;0.60;;;;;;;4.27;100.00;98782.38;5070074;28;20208;-63
2022/12/15 02:34:45;;;;;;;0.70;0.70;;;;;;;4.20;100.00;98789.28;5069773;28;20224;-63
2022/12/15 02:37:17;;;;;;;1.90;1.00;;;;;;;4.16;100.00;98788.47;5069689;28;20274;-63
2022/12/15 02:39:44;;;;;;;0.60;0.60;;;;;;;4.12;100.00;98794.44;5070295;28;20207;-63
2022/12/15 02:42:11;;;;;;;0.83;0.83;;;;;;;4.14;100.00;98815.53;5068992;28;20664;-63
2022/12/15 02:44:42;;;;;;;0.80;0.80;;;;;;;4.17;100.00;98828.16;5070321;28;20228;-63
2022/12/15 02:47:27;;;;;;;0.80;0.80;;;;;;;4.15;100.00;98834.97;5069854;28;20287;-63
2022/12/15 02:50:13;;;;;;;0.57;0.57;;;;;;;4.14;100.00;98830.75;5070651;28;20753;-63
2022/12/15 02:52:53;;;;;;;0.60;0.60;;;;;;;4.10;100.00;98816.44;5069426;28;20208;-63
2022/12/15 02:55:28;;;;;;;0.53;0.53;;;;;;;3.93;100.00;98767.66;5069803;28;20675;-63
2022/12/15 02:58:01;;;;;;;0.50;0.50;;;;;;;4.16;100.00;98801.16;5068095;28;20202;-63
2022/12/15 03:00:33;;;;;;;0.53;0.53;;;;;;;4.17;100.00;98797.72;5069943;28;20196;-63
2022/12/15 03:03:01;;;;;;;0.80;0.80;;;;;;;4.08;100.00;98781.81;5070003;28;20223;-63
2022/12/15 03:05:31;;;;;;;0.80;0.80;;;;;;;4.05;100.00;98772.56;5069685;28;20224;-63
2022/12/15 03:07:58;;;;;;;0.67;0.67;;;;;;;4.12;100.00;98793.59;5070234;28;20201;-63
2022/12/15 03:10:25;;;;;;;0.60;0.60;;;;;;;4.05;100.00;98780.16;5071899;28;20196;-63
2022/12/15 03:12:53;;;;;;;0.80;0.80;;;;;;;4.00;100.00;98793.78;5073914;28;20261;-63
2022/12/15 03:15:20;;;;;;;0.67;0.67;;;;;;;3.99;100.00;98784.47;5073769;28;20200;-63
2022/12/15 03:17:47;;;;;;;2.43;1.07;;;;;;;3.95;100.00;98768.47;5073430;28;20738;-63
2022/12/15 03:20:15;;;;;;;0.80;0.80;;;;;;;3.94;100.00;98778.66;5073924;28;20690;-63
2022/12/15 03:22:43;;;;;;;0.50;0.50;;;;;;;3.93;100.00;98784.56;5071280;28;20245;-63
2022/12/15 03:25:10;;;;;;;0.70;0.70;;;;;;;3.91;100.00;98779.50;5072577;28;20212;-63
2022/12/15 03:27:37;;;;;;;0.70;0.70;;;;;;;3.93;100.00;98785.41;5072160;28;20212;-63
2022/12/15 03:30:06;;;;;;;0.50;0.50;;;;;;;3.87;100.00;98782.97;5073223;28;20234;-63
2022/12/15 03:32:33;;;;;;;0.63;0.63;;;;;;;3.89;100.00;98786.31;5073042;28;20200;-63
2022/12/15 03:34:59;;;;;;;0.60;0.60;;;;;;;3.91;100.00;98794.72;5072533;28;20196;-63
2022/12/15 03:37:28;;;;;;;0.70;0.70;;;;;;;3.90;100.00;98798.13;5073150;28;20230;-63
2022/12/15 03:39:54;;;;;;;0.50;0.50;;;;;;;3.87;100.00;98785.50;5072927;28;20204;-63
2022/12/15 03:42:47;;;;;;;0.50;0.50;;;;;;;3.86;100.00;98788.88;5073430;28;20631;-63
2022/12/15 03:45:09;;;;;;;0.53;0.53;;;;;;;3.87;100.00;98785.50;5072956;28;20309;-63
2022/12/15 03:47:40;;;;;;;0.60;0.60;;;;;;;3.81;100.00;98782.19;5071538;28;20671;-63
2022/12/15 03:50:08;;;;;;;0.60;0.60;;;;;;;3.77;100.00;98781.41;5072209;28;20196;-63
2022/12/15 03:52:36;;;;;;;0.90;0.90;;;;;;;3.79;100.00;98774.59;5072809;28;20197;-63
2022/12/15 03:55:03;;;;;;;0.70;0.70;;;;;;;3.80;100.00;98776.28;5072884;28;20203;-63
2022/12/15 03:57:31;;;;;;;0.60;0.60;;;;;;;3.80;100.00;98776.28;5072272;28;20254;-63
2022/12/15 03:59:58;;;;;;;0.77;0.77;;;;;;;3.85;100.00;98788.88;5071810;28;20219;-63
2022/12/15 04:02:25;;;;;;;0.60;0.60;;;;;;;3.86;100.00;98780.44;5072501;28;20228;-63
2022/12/15 04:04:51;;;;;;;1.17;1.17;;;;;;;3.88;100.00;98779.53;5072566;28;20269;-63
2022/12/15 04:07:18;;;;;;;0.67;0.67;;;;;;;3.89;100.00;98768.56;5072639;28;20721;-63
2022/12/15 04:09:46;;;;;;;1.07;1.07;;;;;;;3.92;100.00;98778.66;5072127;28;20659;-63
2022/12/15 04:12:13;;;;;;;0.50;0.50;;;;;;;3.94;100.00;98771.84;5072016;28;20204;-63
2022/12/15 04:14:41;;;;;;;0.60;0.60;;;;;;;3.94;100.00;98765.97;5071784;28;20270;-63
2022/12/15 04:17:08;;;;;;;0.67;0.67;;;;;;;3.90;100.00;98749.97;5070627;28;20202;-63
2022/12/15 04:22:19;;;;;;;1.00;1.00;;;;;;;4.01;100.00;98770.91;5071700;28;20277;-63
2022/12/15 05:33:24;;;;;;;0.60;0.60;;;;;;;4.53;100.00;98808.19;5064526;28;20445;-63
2022/12/15 05:35:51;;;;;;;0.60;0.60;;;;;;;4.57;100.00;98817.44;5069138;28;20254;-63
2022/12/15 05:38:18;;;;;;;0.60;0.60;;;;;;;4.57;100.00;98815.75;5069803;28;20214;-63
2022/12/15 05:40:45;;;;;;;0.73;0.73;;;;;;;4.59;100.00;98820.78;5070736;28;20192;-62
2022/12/15 05:43:11;;;;;;;0.70;0.70;;;;;;;4.62;100.00;98825.84;5070855;28;20231;-63
2022/12/15 05:45:40;;;;;;;0.50;0.50;;;;;;;4.66;100.00;98832.53;5070208;28;20216;-63
2022/12/15 05:48:06;;;;;;;1.03;1.03;;;;;;;4.66;100.00;98822.38;5070815;28;20196;-63
2022/12/15 05:50:33;;;;;;;1.60;1.60;;;;;;;4.70;100.00;98839.25;5070583;28;20281;-63
2022/12/15 05:53:00;;;;;;;0.50;0.50;;;;;;;4.71;100.00;98833.31;5067019;28;20227;-63
2022/12/15 05:55:27;;;;;;;0.77;0.77;;;;;;;4.74;100.00;98841.72;5070329;28;20217;-63
2022/12/15 05:57:54;;;;;;;0.87;0.87;;;;;;;4.70;100.00;98865.47;5069066;28;20333;-63
2022/12/15 06:00:21;;;;;;;0.80;0.80;;;;;;;4.67;100.00;98865.53;5070763;28;20269;-64
2022/12/15 06:02:49;;;;;;;0.63;0.63;;;;;;;4.68;100.00;98866.38;5070509;28;20718;-63
2022/12/15 06:05:16;;;;;;;0.50;0.50;;;;;;;4.69;100.00;98857.88;5069942;28;20218;-63
2022/12/15 06:07:43;;;;;;;1.10;1.10;;;;;;;4.67;100.00;98854.53;5069739;28;20679;-63
2022/12/15 06:10:10;;;;;;;0.60;0.60;;;;;;;4.66;100.00;98857.91;5069591;28;20215;-63
2022/12/15 06:12:37;;;;;;;0.77;0.77;;;;;;;4.63;100.00;98863.03;5070339;28;20253;-63
2022/12/15 06:15:05;;;;;;;0.70;0.70;;;;;;;4.61;100.00;98880.00;5070378;28;20203;-63
2022/12/15 06:17:34;;;;;;;0.50;0.50;;;;;;;4.62;100.00;98881.69;5070572;28;20552;-63
2022/12/15 06:20:02;;;;;;;0.70;0.70;;;;;;;4.61;100.00;98870.69;5067264;28;20223;-63
2022/12/15 06:22:29;;;;;;;0.50;0.50;;;;;;;4.39;100.00;98848.19;5070418;28;20312;-63
2022/12/15 06:24:56;;;;;;;0.60;0.60;;;;;;;4.56;100.00;98876.69;5070303;28;20262;-63
2022/12/15 06:27:23;;;;;;;0.50;0.50;;;;;;;4.58;100.00;98874.97;5070132;28;20246;-63
2022/12/15 06:29:50;;;;;;;0.70;0.70;;;;;;;4.58;100.00;98896.13;5070516;28;20224;-64
2022/12/15 06:32:16;;;;;;;0.63;0.63;;;;;;;4.54;100.00;98883.50;5069593;28;20659;-63
2022/12/15 06:34:43;;;;;;;0.77;0.77;;;;;;;4.57;100.00;98888.53;5070523;28;20196;-63
2022/12/15 06:37:11;;;;;;;0.70;0.70;;;;;;;4.59;100.00;98894.41;5070126;28;20253;-63
2022/12/15 06:39:38;;;;;;;0.50;0.50;;;;;;;4.62;100.00;98896.94;5070537;28;20254;-63
2022/12/15 06:42:05;;;;;;;1.57;1.57;;;;;;;4.65;100.00;98891.81;5067752;28;20211;-63
2022/12/15 06:44:32;;;;;;;0.83;0.83;;;;;;;4.66;100.00;98885.84;5068860;28;20219;-64
2022/12/15 06:46:59;;;;;;;1.47;1.47;;;;;;;4.69;100.00;98883.25;5072937;28;20816;-64
2022/12/15 06:49:25;;;;;;;0.80;0.80;;;;;;;4.66;100.00;98893.47;5072614;28;20207;-63
2022/12/15 06:51:52;;;;;;;0.53;0.53;;;;;;;4.66;100.00;98889.22;5072102;28;20196;-63
2022/12/15 06:54:20;;;;;;;0.98;0.98;;;;;;;4.68;100.00;98894.28;5071959;28;20448;-60
2022/12/15 06:56:47;;;;;;;0.50;0.50;;;;;;;4.75;100.00;98904.31;5071589;28;20445;-60
2022/12/15 06:59:14;;;;;;;0.73;0.73;;;;;;;4.78;100.00;98903.47;5074191;28;20207;-60
2022/12/15 07:01:41;;;;;;;0.60;0.60;;;;;;;4.83;100.00;98894.06;5073538;28;20715;-60
2022/12/15 07:04:09;;;;;;;0.63;0.63;;;;;;;4.79;100.00;98882.25;5074012;28;20226;-61
2022/12/15 07:06:37;;;;;;;0.63;0.63;;;;;;;4.85;100.00;98899.94;5073544;28;20220;-60
2022/12/15 07:09:07;;;;;;;0.60;0.60;;;;;;;4.86;100.00;98899.09;5073862;28;20204;-61
2022/12/15 07:11:35;;;;;;;0.70;0.70;;;;;;;4.78;100.00;98839.97;5071433;28;20648;-60
2022/12/15 07:14:03;;;;;;;0.60;0.60;;;;;;;4.81;100.00;98883.09;5072295;28;20250;-60
2022/12/15 07:16:30;;;;;;;0.70;0.70;;;;;;;4.93;100.00;98913.38;5073006;28;20644;-60
2022/12/15 07:18:57;;;;;;;0.63;0.63;;;;;;;5.00;100.00;98917.50;5073521;28;20211;-61
2022/12/15 07:21:23;;;;;;;0.87;0.87;;;;;;;5.09;100.00;98927.50;5073480;28;20625;-61
2022/12/15 07:23:50;;;;;;;0.67;0.67;;;;;;;5.16;100.00;98916.41;5073021;28;20204;-60
2022/12/15 07:26:17;;;;;;;0.70;0.70;;;;;;;5.23;100.00;98922.22;5070790;28;20216;-61
2022/12/15 07:28:45;;;;;;;0.80;0.80;;;;;;;5.29;100.00;98935.66;5073198;28;20219;-60
2022/12/15 07:31:12;;;;;;;0.50;0.50;;;;;;;5.34;100.00;98933.03;5073427;28;20279;-60
2022/12/15 07:33:39;;;;;;;1.53;1.53;;;;;;;5.32;100.00;98923.75;5073242;28;20287;-60
2022/12/15 07:36:08;;;;;;;0.83;0.83;;;;;;;5.38;100.00;98921.09;5073703;28;20568;-60
2022/12/15 07:38:35;;;;;;;0.50;0.50;;;;;;;5.40;100.00;98934.63;5073516;28;20238;-60
2022/12/15 07:41:03;;;;;;;0.70;0.70;;;;;;;5.45;100.00;98936.25;5073314;28;20207;-60
2022/12/15 07:43:31;;;;;;;0.60;0.60;;;;;;;5.59;100.00;98928.38;5073418;28;20196;-60
2022/12/15 07:45:59;;;;;;;0.57;0.57;;;;;;;5.72;100.00;98923.03;5073140;28;20219;-61
2022/12/15 07:48:27;;;;;;;0.73;0.73;;;;;;;5.84;100.00;98939.78;5073318;28;20684;-61
2022/12/15 07:50:56;;;;;;;0.50;0.50;;;;;;;5.96;100.00;98938.72;5072976;28;20250;-61
2022/12/15 07:53:24;;;;;;;0.50;0.50;;;;;;;6.01;100.00;98931.88;5073426;28;20204;-61
2022/12/15 07:55:56;;;;;;;0.60;0.60;;;;;;;6.12;100.00;98948.59;5071850;28;20675;-61
2022/12/15 07:58:22;;;;;;;0.63;0.63;;;;;;;6.21;100.00;98942.47;5073243;28;20245;-61
2022/12/15 08:00:49;;;;;;;0.70;0.70;;;;;;;6.25;100.00;98952.56;5072626;28;20203;-61
2022/12/15 08:03:17;;;;;;;0.50;0.50;;;;;;;6.29;100.00;98949.09;5072281;28;20200;-60
2022/12/15 08:05:44;;;;;;;0.60;0.60;;;;;;;6.36;100.00;98952.34;5072745;28;20216;-61
2022/12/15 08:08:11;;;;;;;2.63;1.47;;;;;;;6.48;100.00;98951.25;5072604;28;20199;-60
2022/12/15 08:10:39;;;;;;;0.50;0.50;;;;;;;6.59;100.00;98954.44;5072082;28;20207;-60
2022/12/15 08:13:06;;;;;;;0.50;0.50;;;;;;;6.68;100.00;98952.53;5072445;28;20203;-60
2022/12/15 08:15:35;;;;;;;0.67;0.67;;;;;;;6.74;100.00;98941.34;5073000;28;20196;-61
2022/12/15 08:18:02;;;;;;;0.67;0.67;;;;;;;6.70;100.00;98932.09;5072560;28;20235;-61
2022/12/15 08:20:30;;;;;;;0.63;0.63;;;;;;;6.85;100.00;98949.56;5073037;28;20200;-61
2022/12/15 08:22:57;;;;;;;1.33;1.33;;;;;;;6.93;100.00;98946.88;5071460;28;20231;-60
2022/12/15 08:25:24;;;;;;;0.80;0.80;;;;;;;7.05;100.00;98960.16;5072583;28;20200;-60
2022/12/15 08:27:51;;;;;;;0.50;0.50;;;;;;;7.15;100.00;98965.88;5072557;28;20192;-61
2022/12/15 08:30:18;;;;;;;0.55;0.55;;;;;;;7.28;100.00;98952.81;5071469;28;20434;-64
2022/12/15 08:32:45;;;;;;;0.63;0.63;;;;;;;7.44;100.00;98947.34;5072371;28;20204;-65
2022/12/15 08:35:12;;;;;;;0.50;0.50;;;;;;;7.58;100.00;98945.28;5070712;28;20585;-65
2022/12/15 08:37:40;;;;;;;0.60;0.60;;;;;;;7.69;100.00;98953.53;5072368;28;20231;-65
2022/12/15 08:40:07;;;;;;;0.63;0.63;;;;;;;7.82;100.00;98962.50;5071786;28;20226;-64
2022/12/15 08:42:35;;;;;;;0.77;0.77;;;;;;;7.90;100.00;98958.06;5071878;28;20208;-65
2022/12/15 08:45:01;;;;;;;0.70;0.70;;;;;;;7.98;100.00;98971.44;5068206;28;20205;-65
2022/12/15 08:47:29;;;;;;;1.30;0.93;;;;;;;8.04;100.00;98971.28;5070623;28;20216;-65
2022/12/15 08:49:56;;;;;;;0.47;0.47;;;;;;;8.12;100.00;98969.34;5062877;28;20212;-66
2022/12/15 08:52:23;;;;;;;0.60;0.60;;;;;;;8.16;100.00;98955.63;5067695;28;20200;-65
2022/12/15 08:54:51;;;;;;;0.60;0.60;;;;;;;8.23;100.00;98962.25;5068105;28;20557;-65
2022/12/15 08:57:17;;;;;;;0.80;0.80;;;;;;;8.25;100.00;98965.59;5064977;28;20200;-65
2022/12/15 08:59:44;;;;;;;0.60;0.60;;;;;;;8.27;100.00;98963.00;5070420;28;20208;-65
2022/12/15 09:02:12;;;;;;;0.60;0.60;;;;;;;8.29;100.00;98967.22;5070494;28;20231;-65
2022/12/15 09:04:39;;;;;;;1.43;1.27;;;;;;;8.36;100.00;98961.06;5070075;28;20200;-65
2022/12/15 09:07:06;;;;;;;0.50;0.50;;;;;;;8.24;100.00;98938.38;5070218;28;20273;-65
2022/12/15 09:09:33;;;;;;;0.50;0.50;;;;;;;8.47;100.00;98962.44;5070888;28;20587;-64
2022/12/15 09:12:01;;;;;;;0.43;0.43;;;;;;;8.52;100.00;98963.16;5071576;28;20698;-65
2022/12/15 09:14:28;;;;;;;1.17;1.17;;;;;;;8.56;100.00;98964.75;5067939;28;20200;-64
2022/12/15 09:16:55;;;;;;;0.50;0.50;;;;;;;8.63;100.00;98967.06;5070479;28;20243;-65
2022/12/15 09:19:21;;;;;;;0.60;0.60;;;;;;;8.68;100.00;98972.06;5070617;28;20203;-66
2022/12/15 09:21:48;;;;;;;0.40;0.40;;;;;;;8.74;100.00;98965.06;5070879;28;20203;-65
2022/12/15 09:24:15;;;;;;;0.60;0.60;;;;;;;8.74;100.00;98969.31;5071350;28;20579;-65
2022/12/15 09:26:43;;;;;;;0.40;0.40;;;;;;;8.81;100.00;98963.16;5068969;28;20212;-65
2022/12/15 09:29:13;;;;;;;0.97;0.97;;;;;;;8.84;100.00;98965.63;5071076;28;20200;-65
2022/12/15 09:31:43;;;;;;;0.50;0.50;;;;;;;8.95;100.00;98955.88;5069193;28;20291;-71
2022/12/15 09:34:14;;;;;;;0.67;0.67;;;;;;;9.05;100.00;98944.50;5066134;28;20208;-65
2022/12/15 09:36:41;;;;;;;0.40;0.40;;;;;;;9.02;100.00;98944.59;5068614;28;20203;-65
2022/12/15 09:39:10;;;;;;;0.60;0.60;;;;;;;9.15;100.00;98966.34;5070729;28;20204;-65
2022/12/15 09:41:40;;;;;;;0.83;0.83;;;;;;;9.26;100.00;98960.91;5070428;28;20196;-65
2022/12/15 09:44:13;;;;;;;0.93;0.90;;;;;;;9.32;100.00;98943.63;5070486;28;20204;-65
2022/12/15 09:46:56;;;;;;;0.60;0.60;;;;;;;9.40;100.00;98967.22;5069444;28;20251;-64
2022/12/15 09:49:39;;;;;;;0.40;0.40;;;;;;;9.47;100.00;98968.72;5068144;28;20632;-65
2022/12/15 09:52:10;;;;;;;0.73;0.73;;;;;;;9.50;100.00;98947.28;5071025;28;20207;-65
2022/12/15 09:54:37;;;;;;;4.63;4.37;;;;;;;9.57;100.00;98968.41;5069142;28;20275;-66
2022/12/15 09:57:12;;;;;;;2.27;2.27;;;;;;;9.68;100.00;98976.56;5070499;28;20203;-65
2022/12/15 09:59:50;;;;;;;0.60;0.60;;;;;;;9.74;100.00;98966.97;5070725;28;20679;-65
2022/12/15 10:02:30;;;;;;;0.50;0.50;;;;;;;9.78;100.00;98960.03;5067532;28;20224;-65
2022/12/15 10:05:05;;;;;;;0.53;0.53;;;;;;;9.89;100.00;98970.72;5068994;28;20250;-65
2022/12/15 10:07:40;;;;;;;0.60;0.60;;;;;;;9.95;100.00;98965.41;5069782;28;20310;-66
2022/12/15 10:10:15;;;;;;;0.40;0.40;;;;;;;9.97;100.00;98969.59;5068575;28;20634;-65
2022/12/15 10:12:46;;;;;;;0.50;0.50;;;;;;;10.03;100.00;98978.78;5067677;28;20234;-65
2022/12/15 10:15:22;;;;;;;1.03;1.03;;;;;;;10.10;100.00;98970.00;5069724;28;20192;-65
2022/12/15 10:17:53;;;;;;;0.80;0.80;;;;;;;10.13;100.00;98975.00;5069908;28;20196;-65
2022/12/15 10:20:23;;;;;;;0.60;0.60;;;;;;;10.16;100.00;98964.69;5073498;28;20643;-65
2022/12/15 10:22:51;;;;;;;0.40;0.40;;;;;;;10.21;100.00;98955.09;5073232;28;20644;-65
2022/12/15 10:25:21;;;;;;;0.50;0.50;;;;;;;10.26;100.00;98955.78;5071812;28;20680;-65
2022/12/15 10:28:20;;;;;;;0.80;0.80;;;;;;;10.35;100.00;98959.72;5072470;28;20220;-65
2022/12/15 10:30:57;;;;;;;0.40;0.40;;;;;;;10.45;100.00;98954.22;5073285;28;20893;-65
2022/12/15 10:33:26;;;;;;;3.40;1.00;;;;;;;10.48;100.00;98959.25;5071429;28;20253;-65
2022/12/15 10:35:54;;;;;;;0.47;0.47;;;;;;;10.50;100.00;98952.31;5071412;28;20634;-65
2022/12/15 10:38:26;;;;;;;0.60;0.60;;;;;;;10.55;100.00;98952.16;5072805;28;20686;-65
2022/12/15 10:40:55;;;;;;;0.53;0.53;;;;;;;10.58;100.00;98958.88;5074038;28;20196;-65
2022/12/15 10:43:27;;;;;;;0.80;0.80;;;;;;;10.67;100.00;98950.84;5070133;28;20257;-65
2022/12/15 10:46:07;;;;;;;0.40;0.40;;;;;;;10.75;100.00;98946.28;5069311;28;20609;-65
2022/12/15 10:48:33;;;;;;;0.40;0.40;;;;;;;10.78;100.00;98943.59;5070442;28;20683;-65
2022/12/15 10:51:26;;;;;;;0.50;0.50;;;;;;;10.89;100.00;98961.97;5072797;28;20199;-66
2022/12/15 10:53:55;;;;;;;0.70;0.70;;;;;;;10.89;100.00;98962.78;5070611;28;20676;-70
2022/12/15 10:56:24;;;;;;;0.40;0.40;;;;;;;10.87;100.00;98959.47;5068370;28;20200;-65
2022/12/15 10:58:53;;;;;;;1.30;0.63;;;;;;;10.97;100.00;98967.66;5068328;28;20219;-65
2022/12/15 11:01:25;;;;;;;0.93;0.93;;;;;;;10.90;99.43;98963.63;5073300;28;20231;-66
2022/12/15 11:03:52;;;;;;;0.87;0.87;;;;;;;10.97;100.00;98976.19;5070526;28;20227;-66
2022/12/15 11:06:22;;;;;;;0.50;0.50;;;;;;;11.01;100.00;98961.50;5070920;28;20223;-66
2022/12/15 11:08:51;;;;;;;0.40;0.40;;;;;;;11.06;100.00;98969.84;5070344;28;20603;-66
2022/12/15 11:14:14;;;;;;;0.50;0.50;;;;;;;11.11;100.00;98973.09;5070040;28;20686;-65
2022/12/15 11:16:50;;;;;;;0.57;0.57;;;;;;;10.99;100.00;98960.72;5072602;28;20196;-65
2022/12/15 11:19:27;;;;;;;0.60;0.60;;;;;;;11.10;99.38;98980.81;5073590;28;21090;-65
2022/12/15 11:21:58;;;;;;;0.50;0.50;;;;;;;11.16;100.00;98975.44;5073432;28;20290;-65
2022/12/15 11:24:34;;;;;;;0.63;0.63;;;;;;;11.23;100.00;98979.44;5068993;28;20208;-66
2022/12/15 11:27:10;;;;;;;0.87;0.83;;;;;;;11.27;100.00;98979.28;5069740;28;20310;-66
2022/12/15 11:29:46;;;;;;;0.30;0.30;;;;;;;11.33;100.00;98978.19;5069195;28;20207;-66
2022/12/15 11:32:14;;;;;;;0.60;0.60;;;;;;;11.41;99.14;98982.13;5070604;28;20222;-66
2022/12/15 11:34:44;;;;;;;1.07;1.07;;;;;;;11.46;98.26;98975.09;5071967;28;20286;-66
2022/12/15 11:37:40;;;;;;;0.60;0.60;;;;;;;11.50;97.52;98970.66;5069764;28;20188;-66
2022/12/15 11:40:23;;;;;;;0.60;0.60;;;;;;;11.57;99.01;98972.91;5070315;28;20246;-66
2022/12/15 11:43:23;;;;;;;0.50;0.50;;;;;;;11.63;99.32;98973.56;5072180;28;20212;-66
2022/12/15 11:46:01;;;;;;;0.40;0.40;;;;;;;11.66;97.56;98981.13;5064145;28;20672;-65
2022/12/15 11:48:41;;;;;;;0.40;0.40;;;;;;;11.64;97.05;98972.63;5069591;28;20219;-65
2022/12/15 11:51:15;;;;;;;0.43;0.43;;;;;;;11.70;96.58;98978.38;5072336;28;20594;-64
2022/12/15 11:53:59;;;;;;;0.60;0.60;;;;;;;11.82;96.89;98988.19;5072351;28;20200;-67
2022/12/15 11:56:31;;;;;;;0.50;0.50;;;;;;;11.74;97.07;98966.25;5068137;28;20249;-67
2022/12/15 11:59:22;;;;;;;0.40;0.40;;;;;;;11.90;97.67;98982.69;5069106;28;20659;-67
2022/12/15 12:02:01;;;;;;;0.50;0.50;;;;;;;11.88;97.29;98992.22;5071115;28;20707;-66
2022/12/15 12:04:34;;;;;;;0.97;0.97;;;;;;;11.90;96.68;98985.28;5069550;28;20583;-66
2022/12/15 12:07:09;;;;;;;0.50;0.50;;;;;;;11.93;95.69;98985.97;5071782;28;20216;-67
2022/12/15 12:09:41;;;;;;;0.40;0.40;;;;;;;11.97;94.92;98991.81;5071035;28;20625;-66
2022/12/15 12:12:16;;;;;;;0.50;0.50;;;;;;;11.94;93.37;98997.94;5067337;28;20204;-66
2022/12/15 12:15:04;;;;;;;0.37;0.37;;;;;;;11.99;93.79;98990.84;5068091;28;20261;-66
2022/12/15 12:17:40;;;;;;;0.40;0.40;;;;;;;12.04;94.18;98994.06;5069363;28;20200;-66
2022/12/15 12:20:17;;;;;;;0.50;0.50;;;;;;;12.06;94.20;98986.28;5070296;28;20268;-66
2022/12/15 12:22:57;;;;;;;0.40;0.40;;;;;;;12.06;94.55;98988.84;5070386;28;20258;-66
2022/12/15 12:25:25;;;;;;;0.50;0.50;;;;;;;12.10;94.95;98985.25;5068945;28;20199;-66
2022/12/15 12:27:57;;;;;;;0.60;0.60;;;;;;;12.15;94.39;98996.16;5069313;28;21679;-66
2022/12/15 12:30:29;;;;;;;0.40;0.40;;;;;;;12.10;94.15;98987.84;5070168;28;20203;-66
2022/12/15 12:33:03;;;;;;;0.50;0.50;;;;;;;12.19;94.95;99005.41;5068724;28;20966;-66
2022/12/15 12:35:38;;;;;;;0.50;0.50;;;;;;;12.17;93.60;98994.38;5066237;28;20203;-66
2022/12/15 12:38:07;;;;;;;0.50;0.50;;;;;;;12.24;93.29;99011.22;5067231;28;20207;-67
2022/12/15 12:40:59;;;;;;;0.40;0.40;;;;;;;12.27;93.69;99013.66;5062853;28;20287;-67
2022/12/15 12:43:32;;;;;;;0.60;0.60;;;;;;;12.30;94.04;99016.09;5065487;28;20254;-67
2022/12/15 12:46:05;;;;;;;0.60;0.60;;;;;;;12.07;93.80;98980.25;5065193;28;20254;-66
2022/12/15 12:48:36;;;;;;;0.83;0.83;;;;;;;12.35;94.18;99019.28;5063913;28;20226;-66
2022/12/15 12:51:19;;;;;;;0.50;0.50;;;;;;;12.37;93.86;99027.78;5067420;28;20203;-66
2022/12/15 12:53:46;;;;;;;0.70;0.70;;;;;;;12.42;93.55;99027.56;5068407;28;20211;-66
2022/12/15 12:56:33;;;;;;;0.50;0.50;;;;;;;12.41;93.16;99028.44;5069128;28;20212;-67
2022/12/15 12:59:06;;;;;;;0.50;0.50;;;;;;;12.39;92.98;99036.25;5068370;28;20196;-67
2022/12/15 13:01:37;;;;;;;0.50;0.50;;;;;;;12.35;93.41;99042.41;5066577;28;20237;-67
2022/12/15 13:04:10;;;;;;;0.53;0.53;;;;;;;12.45;93.03;99046.25;5070283;28;20326;-66
2022/12/15 13:06:58;;;;;;;2.43;0.80;;;;;;;12.49;92.58;99050.38;5070226;28;20203;-66
2022/12/15 13:09:38;;;;;;;0.53;0.53;;;;;;;12.50;91.95;99049.44;5068149;28;20280;-66
2022/12/15 13:12:25;;;;;;;0.60;0.60;;;;;;;12.52;91.40;99046.84;5066837;28;20195;-66
2022/12/15 13:14:55;;;;;;;0.40;0.40;;;;;;;12.46;92.41;99050.50;5069880;28;20257;-66
2022/12/15 13:17:38;;;;;;;0.50;0.50;;;;;;;12.36;95.11;99051.81;5067456;28;20196;-66
2022/12/15 13:20:25;;;;;;;0.50;0.50;;;;;;;12.30;95.76;99046.94;5068740;28;20226;-66
2022/12/15 13:22:55;;;;;;;0.60;0.60;;;;;;;12.26;95.91;99070.25;5069894;28;20207;-66
2022/12/15 13:25:46;;;;;;;0.60;0.60;;;;;;;12.28;95.80;99076.19;5071245;28;20652;-66
2022/12/15 13:28:27;;;;;;;0.70;0.70;;;;;;;12.12;96.24;99063.09;5066595;28;20273;-67
2022/12/15 13:31:24;;;;;;;0.40;0.40;;;;;;;12.24;96.38;99072.91;5068071;28;20634;-66
2022/12/15 13:33:56;;;;;;;0.80;0.80;;;;;;;12.26;96.23;99075.38;5065355;28;20207;-67
2022/12/15 13:36:58;;;;;;;0.40;0.40;;;;;;;12.27;96.21;99075.34;5069645;28;20255;-66
2022/12/15 13:39:55;;;;;;;0.60;0.60;;;;;;;12.27;96.39;99062.47;5066960;28;20195;-66
2022/12/15 13:42:30;;;;;;;0.50;0.50;;;;;;;12.26;96.70;99075.38;5069067;28;20348;-66
2022/12/15 13:45:23;;;;;;;4.33;1.67;;;;;;;12.27;95.91;99077.06;5069073;28;20195;-66
2022/12/15 13:47:55;;;;;;;0.40;0.40;;;;;;;12.22;96.77;99078.97;5068244;28;20228;-66
2022/12/15 13:50:31;;;;;;;1.00;1.00;;;;;;;12.24;97.82;99087.47;5068578;28;20318;-67
2022/12/15 13:53:02;;;;;;;0.47;0.47;;;;;;;12.21;98.02;99088.44;5068666;28;20207;-67
2022/12/15 13:55:37;;;;;;;0.50;0.50;;;;;;;12.22;98.04;99094.41;5068750;28;20238;-67
2022/12/15 13:58:11;;;;;;;0.50;0.50;;;;;;;12.14;99.02;99087.03;5068207;28;20208;-67
2022/12/15 14:00:39;;;;;;;0.77;0.77;;;;;;;11.96;100.00;99092.91;5064080;28;20242;-66
2022/12/15 14:03:09;;;;;;;0.40;0.40;;;;;;;11.89;100.00;99091.50;5062314;28;20306;-66
2022/12/15 14:05:41;;;;;;;0.63;0.63;;;;;;;11.67;100.00;99075.22;5062087;28;21213;-66
2022/12/15 14:08:14;;;;;;;1.40;1.40;;;;;;;11.71;100.00;99097.34;5058055;28;20224;-66
2022/12/15 14:10:46;;;;;;;1.20;1.20;;;;;;;11.73;100.00;99093.81;5062192;28;20211;-66
2022/12/15 14:13:18;;;;;;;1.00;1.00;;;;;;;11.68;100.00;99098.28;5061331;28;20726;-67
2022/12/15 14:15:48;;;;;;;0.90;0.90;;;;;;;11.65;100.00;99100.13;5065016;28;20207;-67
2022/12/15 14:18:25;;;;;;;0.47;0.47;;;;;;;11.57;100.00;99100.41;5061108;28;20204;-66